createdAt,value
2017-03-27T00:00:29.227Z,5.54
2017-03-27T00:01:38.583Z,5.59
2017-03-27T00:02:48.176Z,5.54
2017-03-27T00:03:58.048Z,5.56
2017-03-27T00:05:39.841Z,5.56
2017-03-27T00:06:49.822Z,5.56
2017-03-27T00:07:59.739Z,5.62
2017-03-27T00:09:09.469Z,5.51
2017-03-27T00:10:19.374Z,5.59
2017-03-27T00:11:29.315Z,5.61
2017-03-27T00:12:39.330Z,5.58
2017-03-27T00:13:48.980Z,5.59
2017-03-27T00:14:59.144Z,5.54
2017-03-27T00:16:09.082Z,5.56
2017-03-27T00:17:18.698Z,5.43
2017-03-27T00:18:28.298Z,5.46
2017-03-27T00:19:37.934Z,5.44
2017-03-27T00:20:48.094Z,5.43
2017-03-27T00:21:57.421Z,5.32
2017-03-27T00:23:07.343Z,5.31
2017-03-27T00:24:17.331Z,5.31
2017-03-27T00:25:26.597Z,5.29
2017-03-27T00:26:36.549Z,5.36
2017-03-27T00:27:46.181Z,5.17
2017-03-27T00:28:56.197Z,5.28
2017-03-27T00:30:06.149Z,5.28
2017-03-27T00:31:16.134Z,5.25
2017-03-27T00:32:25.678Z,5.21
2017-03-27T00:33:35.584Z,5.16
2017-03-27T00:34:45.569Z,5.18
2017-03-27T00:35:55.493Z,5.17
2017-03-27T00:37:05.108Z,5.24
2017-03-27T00:38:15.312Z,5.24
2017-03-27T00:39:25.411Z,5.31
2017-03-27T00:40:34.999Z,5.22
2017-03-27T00:41:44.308Z,5.18
2017-03-27T00:42:54.237Z,5.32
2017-03-27T00:44:04.463Z,5.26
2017-03-27T00:45:14.405Z,5.17
2017-03-27T00:46:24.319Z,5.31
2017-03-27T00:47:34.318Z,5.17
2017-03-27T00:48:44.256Z,5.29
2017-03-27T00:49:54.104Z,5.24
2017-03-27T00:51:04.028Z,5.26
2017-03-27T00:52:14.024Z,5.18
2017-03-27T00:53:23.929Z,5.24
2017-03-27T00:54:33.864Z,5.29
2017-03-27T00:55:44.098Z,5.29
2017-03-27T00:56:54.125Z,5.24
2017-03-27T00:58:03.435Z,5.18
2017-03-27T00:59:13.351Z,5.18
2017-03-27T01:00:22.965Z,5.13
2017-03-27T01:01:33.092Z,5.16
2017-03-27T01:02:42.991Z,5.14
2017-03-27T01:03:52.946Z,5.11
2017-03-27T01:05:02.981Z,5.13
2017-03-27T01:06:12.959Z,5.18
2017-03-27T01:07:22.479Z,5.16
2017-03-27T01:08:32.435Z,5.16
2017-03-27T01:09:42.353Z,5.16
2017-03-27T01:10:52.404Z,5.18
2017-03-27T01:12:02.387Z,5.16
2017-03-27T01:13:12.620Z,5.14
2017-03-27T01:14:21.901Z,5.14
2017-03-27T01:15:31.196Z,5.16
2017-03-27T01:16:40.915Z,5.21
2017-03-27T01:17:50.879Z,5.21
2017-03-27T01:19:01.115Z,5.11
2017-03-27T01:20:10.690Z,5.13
2017-03-27T01:21:20.586Z,5.07
2017-03-27T01:22:30.531Z,5.04
2017-03-27T01:23:40.450Z,5
2017-03-27T01:24:50.625Z,5.04
2017-03-27T01:26:00.207Z,4.99
2017-03-27T01:27:10.119Z,4.98
2017-03-27T01:28:19.739Z,4.96
2017-03-27T01:29:29.384Z,4.95
2017-03-27T01:30:39.223Z,4.95
2017-03-27T01:31:49.175Z,4.92
2017-03-27T01:32:58.858Z,4.93
2017-03-27T01:34:08.442Z,4.88
2017-03-27T01:35:18.058Z,4.95
2017-03-27T01:36:28.028Z,4.81
2017-03-27T01:37:38.003Z,4.86
2017-03-27T01:38:47.275Z,4.75
2017-03-27T01:39:56.875Z,4.68
2017-03-27T01:41:06.855Z,4.71
2017-03-27T01:42:17.226Z,4.7
2017-03-27T01:43:27.130Z,4.67
2017-03-27T01:44:37.040Z,4.57
2017-03-27T01:45:46.669Z,4.55
2017-03-27T01:46:56.617Z,4.55
2017-03-27T01:48:06.913Z,4.49
2017-03-27T01:49:17.020Z,4.47
2017-03-27T01:50:26.601Z,4.4
2017-03-27T01:51:36.598Z,4.47
2017-03-27T01:52:46.499Z,4.41
2017-03-27T01:53:56.642Z,4.3
2017-03-27T01:55:06.250Z,4.33
2017-03-27T01:56:16.150Z,4.3
2017-03-27T01:57:26.128Z,4.36
2017-03-27T01:58:35.742Z,4.36
2017-03-27T01:59:45.975Z,4.36
2017-03-27T02:00:55.987Z,4.36
2017-03-27T02:02:05.898Z,4.34
2017-03-27T02:03:16.115Z,4.27
2017-03-27T02:04:26.229Z,4.22
2017-03-27T02:05:36.410Z,4.19
2017-03-27T02:06:45.995Z,4.2
2017-03-27T02:07:55.579Z,4.18
2017-03-27T02:09:05.548Z,4.11
2017-03-27T02:10:15.184Z,4.23
2017-03-27T02:11:25.276Z,4.22
2017-03-27T02:12:35.266Z,4.22
2017-03-27T02:13:45.275Z,4.22
2017-03-27T02:14:54.900Z,4.23
2017-03-27T02:16:04.504Z,4.15
2017-03-27T02:17:14.350Z,4.19
2017-03-27T02:18:24.305Z,4.2
2017-03-27T02:19:33.917Z,4.2
2017-03-27T02:20:43.853Z,4.28
2017-03-27T02:21:53.775Z,4.19
2017-03-27T02:23:03.715Z,4.22
2017-03-27T02:24:13.633Z,4.27
2017-03-27T02:25:23.214Z,4.19
2017-03-27T02:26:33.118Z,4.2
2017-03-27T02:27:42.709Z,4.11
2017-03-27T02:28:52.903Z,4.2
2017-03-27T02:30:02.222Z,4.19
2017-03-27T02:31:12.191Z,4.2
2017-03-27T02:32:22.095Z,4.16
2017-03-27T02:33:32.148Z,4.11
2017-03-27T02:34:41.711Z,4.05
2017-03-27T02:35:51.621Z,4.09
2017-03-27T02:37:01.565Z,4.18
2017-03-27T02:38:11.064Z,4.12
2017-03-27T02:39:21.074Z,4.12
2017-03-27T02:40:31.339Z,4.03
2017-03-27T02:41:41.250Z,4.09
2017-03-27T02:42:51.202Z,4.15
2017-03-27T02:44:01.155Z,3.98
2017-03-27T02:45:11.058Z,4.04
2017-03-27T02:46:21.238Z,4
2017-03-27T02:47:30.822Z,3.95
2017-03-27T02:48:40.785Z,4
2017-03-27T02:49:50.372Z,3.94
2017-03-27T02:50:59.973Z,3.94
2017-03-27T02:52:09.527Z,3.83
2017-03-27T02:53:19.460Z,3.85
2017-03-27T02:54:29.084Z,3.83
2017-03-27T02:55:39.072Z,3.77
2017-03-27T02:56:49.033Z,3.83
2017-03-27T02:57:59.205Z,3.83
2017-03-27T02:59:09.161Z,3.8
2017-03-27T03:00:19.136Z,3.76
2017-03-27T03:01:29.165Z,3.77
2017-03-27T03:02:39.123Z,3.69
2017-03-27T03:03:48.648Z,3.79
2017-03-27T03:04:58.633Z,3.72
2017-03-27T03:06:08.334Z,3.72
2017-03-27T03:07:17.928Z,3.73
2017-03-27T03:08:28.086Z,3.68
2017-03-27T03:09:37.668Z,3.73
2017-03-27T03:10:47.265Z,3.68
2017-03-27T03:11:57.179Z,3.65
2017-03-27T03:13:06.786Z,3.67
2017-03-27T03:14:16.094Z,3.59
2017-03-27T03:15:26.340Z,3.61
2017-03-27T03:16:35.965Z,3.68
2017-03-27T03:17:45.984Z,3.57
2017-03-27T03:18:55.614Z,3.62
2017-03-27T03:20:05.569Z,3.59
2017-03-27T03:21:15.778Z,3.5
2017-03-27T03:22:25.732Z,3.61
2017-03-27T03:23:35.306Z,3.62
2017-03-27T03:24:44.886Z,3.59
2017-03-27T03:25:54.633Z,3.55
2017-03-27T03:27:04.848Z,3.55
2017-03-27T03:28:14.813Z,3.55
2017-03-27T03:29:24.729Z,3.58
2017-03-27T03:30:34.035Z,3.54
2017-03-27T03:31:43.662Z,3.5
2017-03-27T03:32:53.557Z,3.62
2017-03-27T03:34:03.478Z,3.57
2017-03-27T03:35:13.385Z,3.62
2017-03-27T03:36:23.523Z,3.64
2017-03-27T03:37:33.563Z,3.59
2017-03-27T03:38:43.723Z,3.62
2017-03-27T03:39:53.634Z,3.55
2017-03-27T03:41:03.533Z,3.58
2017-03-27T03:42:13.122Z,3.57
2017-03-27T03:43:23.057Z,3.4
2017-03-27T03:44:33.025Z,3.39
2017-03-27T03:45:43.013Z,3.42
2017-03-27T03:46:52.669Z,3.4
2017-03-27T03:48:02.283Z,3.37
2017-03-27T03:49:11.901Z,3.4
2017-03-27T03:50:22.064Z,3.43
2017-03-27T03:51:31.680Z,3.37
2017-03-27T03:52:41.664Z,3.37
2017-03-27T03:53:51.670Z,3.42
2017-03-27T03:55:01.316Z,3.39
2017-03-27T03:56:11.202Z,3.39
2017-03-27T03:57:21.284Z,3.42
2017-03-27T03:58:31.200Z,3.44
2017-03-27T03:59:41.106Z,3.37
2017-03-27T04:00:51.068Z,3.39
2017-03-27T04:02:00.928Z,3.49
2017-03-27T04:03:10.613Z,3.49
2017-03-27T04:04:20.201Z,3.57
2017-03-27T04:05:29.828Z,3.58
2017-03-27T04:06:39.421Z,3.49
2017-03-27T04:07:49.595Z,3.52
2017-03-27T04:08:59.185Z,3.42
2017-03-27T04:10:09.090Z,3.37
2017-03-27T04:11:18.949Z,3.46
2017-03-27T04:12:28.633Z,3.42
2017-03-27T04:13:38.918Z,3.39
2017-03-27T04:14:48.864Z,3.39
2017-03-27T04:15:58.534Z,3.32
2017-03-27T04:17:08.451Z,3.29
2017-03-27T04:18:18.381Z,3.24
2017-03-27T04:19:28.581Z,3.25
2017-03-27T04:20:38.177Z,3.21
2017-03-27T04:21:48.121Z,3.29
2017-03-27T04:22:57.713Z,3.26
2017-03-27T04:24:07.860Z,3.22
2017-03-27T04:25:17.784Z,3.24
2017-03-27T04:26:27.695Z,3.22
2017-03-27T04:27:37.285Z,3.25
2017-03-27T04:28:46.863Z,3.25
2017-03-27T04:29:56.980Z,3.24
2017-03-27T04:31:07.209Z,3.18
2017-03-27T04:32:17.151Z,3.15
2017-03-27T04:33:26.759Z,3.18
2017-03-27T04:34:36.369Z,3.26
2017-03-27T04:35:46.399Z,3.26
2017-03-27T04:36:56.256Z,3.28
2017-03-27T04:38:05.852Z,3.21
2017-03-27T04:39:15.474Z,3.16
2017-03-27T04:40:24.860Z,3.22
2017-03-27T04:41:34.446Z,3.15
2017-03-27T04:42:44.847Z,3.19
2017-03-27T04:43:54.503Z,3.25
2017-03-27T04:45:03.773Z,3.28
2017-03-27T04:46:13.076Z,3.22
2017-03-27T04:47:23.000Z,3.25
2017-03-27T04:48:33.190Z,3.16
2017-03-27T04:49:43.185Z,3.22
2017-03-27T04:50:53.354Z,3.21
2017-03-27T04:52:02.966Z,3.25
2017-03-27T04:53:12.765Z,3.15
2017-03-27T04:54:22.622Z,3.06
2017-03-27T04:55:32.537Z,3.08
2017-03-27T04:56:42.119Z,3.07
2017-03-27T04:57:51.708Z,3.1
2017-03-27T04:59:01.678Z,3.04
2017-03-27T05:00:11.196Z,3.06
2017-03-27T05:01:20.561Z,3.02
2017-03-27T05:02:30.498Z,3.06
2017-03-27T05:03:40.121Z,3.06
2017-03-27T05:04:50.047Z,3.16
2017-03-27T05:05:59.886Z,3.07
2017-03-27T05:07:09.485Z,3.08
2017-03-27T05:08:19.174Z,3.06
2017-03-27T05:09:29.077Z,3.06
2017-03-27T05:10:38.973Z,3.07
2017-03-27T05:11:48.835Z,3
2017-03-27T05:12:58.761Z,3.02
2017-03-27T05:14:08.708Z,3.06
2017-03-27T05:15:18.665Z,3
2017-03-27T05:16:28.610Z,3.07
2017-03-27T05:17:37.858Z,3.1
2017-03-27T05:18:47.835Z,3.02
2017-03-27T05:19:57.111Z,2.99
2017-03-27T05:21:07.007Z,2.97
2017-03-27T05:22:16.645Z,2.97
2017-03-27T05:23:26.495Z,2.92
2017-03-27T05:24:36.408Z,2.91
2017-03-27T05:25:46.342Z,2.99
2017-03-27T05:26:56.344Z,2.97
2017-03-27T05:28:06.265Z,2.97
2017-03-27T05:29:16.144Z,3.02
2017-03-27T05:30:26.087Z,3.07
2017-03-27T05:31:35.399Z,3.16
2017-03-27T05:32:44.373Z,3.19
2017-03-27T05:33:54.307Z,3.22
2017-03-27T05:35:04.518Z,3.16
2017-03-27T05:36:14.492Z,3.25
2017-03-27T05:37:24.127Z,3.31
2017-03-27T05:38:34.060Z,3.26
2017-03-27T05:39:43.966Z,3.31
2017-03-27T05:40:53.839Z,3.42
2017-03-27T05:42:03.457Z,3.37
2017-03-27T05:43:13.431Z,3.4
2017-03-27T05:44:23.414Z,3.47
2017-03-27T05:45:33.556Z,3.59
2017-03-27T05:46:43.428Z,3.55
2017-03-27T05:47:53.336Z,3.5
2017-03-27T05:49:03.243Z,3.68
2017-03-27T05:50:13.164Z,3.69
2017-03-27T05:51:23.140Z,3.72
2017-03-27T05:52:32.976Z,3.75
2017-03-27T05:53:42.663Z,3.86
2017-03-27T05:54:52.596Z,3.95
2017-03-27T05:56:01.936Z,3.98
2017-03-27T05:57:11.965Z,3.97
2017-03-27T05:58:22.122Z,4
2017-03-27T05:59:32.098Z,4.15
2017-03-27T06:00:41.994Z,4.19
2017-03-27T06:01:51.898Z,4.19
2017-03-27T06:03:01.515Z,4.23
2017-03-27T06:04:11.738Z,4.3
2017-03-27T06:05:21.557Z,4.28
2017-03-27T06:06:31.579Z,4.28
2017-03-27T06:07:41.521Z,4.4
2017-03-27T06:08:51.506Z,4.46
2017-03-27T06:10:01.780Z,4.43
2017-03-27T06:11:11.374Z,4.52
2017-03-27T06:12:21.281Z,4.57
2017-03-27T06:13:31.200Z,4.63
2017-03-27T06:14:41.164Z,4.74
2017-03-27T06:15:50.680Z,4.67
2017-03-27T06:17:00.686Z,4.78
2017-03-27T06:18:10.397Z,4.83
2017-03-27T06:19:20.431Z,4.89
2017-03-27T06:20:30.083Z,4.86
2017-03-27T06:21:40.275Z,4.85
2017-03-27T06:22:50.223Z,4.95
2017-03-27T06:24:00.137Z,5
2017-03-27T06:25:09.423Z,4.98
2017-03-27T06:26:19.470Z,5.1
2017-03-27T06:27:29.377Z,5.16
2017-03-27T06:28:39.379Z,5.14
2017-03-27T06:29:49.280Z,5.11
2017-03-27T06:30:58.882Z,5.06
2017-03-27T06:32:08.861Z,4.99
2017-03-27T06:33:19.036Z,4.96
2017-03-27T06:34:28.980Z,4.99
2017-03-27T06:35:37.930Z,4.93
2017-03-27T06:36:47.598Z,4.8
2017-03-27T06:37:56.875Z,4.75
2017-03-27T06:39:06.399Z,4.77
2017-03-27T06:40:16.417Z,4.74
2017-03-27T06:41:26.021Z,4.71
2017-03-27T06:42:35.939Z,4.83
2017-03-27T06:43:45.888Z,4.81
2017-03-27T06:44:55.759Z,4.85
2017-03-27T06:46:05.677Z,4.81
2017-03-27T06:47:15.311Z,4.9
2017-03-27T06:48:25.319Z,4.98
2017-03-27T06:49:35.401Z,4.99
2017-03-27T06:50:44.919Z,5.14
2017-03-27T06:51:54.543Z,5.11
2017-03-27T06:53:04.176Z,5.14
2017-03-27T06:54:14.240Z,5.22
2017-03-27T06:55:24.229Z,5.13
2017-03-27T06:56:34.398Z,5.22
2017-03-27T06:57:44.379Z,5.21
2017-03-27T06:58:54.292Z,5.33
2017-03-27T07:00:03.930Z,5.31
2017-03-27T07:01:13.852Z,5.43
2017-03-27T07:02:23.801Z,5.43
2017-03-27T07:03:33.443Z,5.44
2017-03-27T07:04:43.060Z,5.5
2017-03-27T07:05:52.021Z,5.53
2017-03-27T07:07:01.942Z,5.5
2017-03-27T07:08:12.209Z,5.43
2017-03-27T07:09:21.492Z,5.46
2017-03-27T07:10:31.083Z,5.5
2017-03-27T07:11:40.995Z,5.54
2017-03-27T07:12:50.655Z,5.58
2017-03-27T07:14:00.509Z,5.54
2017-03-27T07:15:10.107Z,5.56
2017-03-27T07:16:19.420Z,5.61
2017-03-27T07:17:29.074Z,5.67
2017-03-27T07:18:39.047Z,5.68
2017-03-27T07:19:48.939Z,5.69
2017-03-27T07:20:58.621Z,5.84
2017-03-27T07:22:08.245Z,5.8
2017-03-27T07:23:18.191Z,5.83
2017-03-27T07:24:28.114Z,5.84
2017-03-27T07:25:37.970Z,5.9
2017-03-27T07:26:48.046Z,5.94
2017-03-27T07:27:57.773Z,6.03
2017-03-27T07:29:07.366Z,6.02
2017-03-27T07:30:16.687Z,6.05
2017-03-27T07:31:26.946Z,6.17
2017-03-27T07:32:36.891Z,6.14
2017-03-27T07:33:46.485Z,6.24
2017-03-27T07:34:56.470Z,6.3
2017-03-27T07:36:06.093Z,6.28
2017-03-27T07:37:16.273Z,6.41
2017-03-27T07:38:26.218Z,6.49
2017-03-27T07:39:36.137Z,6.53
2017-03-27T07:40:46.045Z,6.56
2017-03-27T07:41:56.105Z,6.69
2017-03-27T07:43:06.286Z,6.81
2017-03-27T07:44:16.319Z,6.93
2017-03-27T07:45:26.284Z,7.03
2017-03-27T07:46:36.204Z,7.14
2017-03-27T07:47:46.132Z,7.22
2017-03-27T07:48:56.296Z,7.31
2017-03-27T07:50:05.918Z,7.36
2017-03-27T07:51:15.931Z,7.66
2017-03-27T07:52:25.561Z,7.73
2017-03-27T07:53:35.241Z,7.88
2017-03-27T07:54:45.465Z,8.02
2017-03-27T07:55:55.159Z,8.34
2017-03-27T07:57:05.079Z,8.53
2017-03-27T07:58:14.696Z,8.79
2017-03-27T07:59:24.652Z,9.12
2017-03-27T08:00:34.541Z,9.4
2017-03-27T08:01:44.575Z,9.78
2017-03-27T08:02:54.477Z,10.11
2017-03-27T08:04:04.435Z,10.37
2017-03-27T08:05:15.927Z,10.7
2017-03-27T08:06:26.840Z,11.39
2017-03-27T08:07:37.032Z,12.56
2017-03-27T08:08:47.669Z,13.58
2017-03-27T08:09:57.943Z,14.52
2017-03-27T08:11:08.522Z,15.25
2017-03-27T08:12:19.267Z,15.98
2017-03-27T08:13:29.512Z,16.68
2017-03-27T08:14:40.014Z,17.43
2017-03-27T08:15:50.204Z,17.98
2017-03-27T08:17:01.727Z,18.35
2017-03-27T08:18:12.655Z,18.87
2017-03-27T08:19:23.251Z,19.18
2017-03-27T08:20:34.411Z,19.6
2017-03-27T08:21:44.853Z,19.95
2017-03-27T08:22:54.535Z,20.23
2017-03-27T08:24:04.319Z,20.39
2017-03-27T08:25:14.833Z,20.48
2017-03-27T08:26:26.693Z,20.85
2017-03-27T08:27:36.875Z,20.97
2017-03-27T08:28:47.133Z,21.09
2017-03-27T08:29:57.639Z,21.1
2017-03-27T08:31:07.908Z,21.33
2017-03-27T08:32:18.409Z,21.73
2017-03-27T08:33:29.014Z,21.76
2017-03-27T08:34:39.731Z,21.87
2017-03-27T08:35:50.512Z,21.75
2017-03-27T08:37:01.026Z,21.57
2017-03-27T08:38:11.600Z,21.35
2017-03-27T08:39:22.138Z,21.25
2017-03-27T08:40:33.301Z,20.91
2017-03-27T08:41:44.211Z,21.01
2017-03-27T08:42:54.408Z,20.91
2017-03-27T08:44:04.940Z,20.98
2017-03-27T08:45:15.119Z,20.91
2017-03-27T08:46:25.985Z,20.67
2017-03-27T08:47:36.819Z,20.73
2017-03-27T08:48:47.012Z,20.82
2017-03-27T08:49:56.938Z,21.15
2017-03-27T08:51:07.448Z,21.58
2017-03-27T08:52:17.706Z,22.01
2017-03-27T08:53:27.894Z,22.23
2017-03-27T08:54:38.238Z,22.43
2017-03-27T08:55:48.485Z,22.65
2017-03-27T08:56:59.007Z,22.98
2017-03-27T08:58:09.753Z,23.03
2017-03-27T08:59:20.585Z,23.08
2017-03-27T09:00:31.141Z,23.32
2017-03-27T09:01:41.793Z,23.45
2017-03-27T09:02:52.417Z,23.64
2017-03-27T09:04:02.991Z,23.88
2017-03-27T09:05:13.886Z,24.1
2017-03-27T09:06:24.445Z,24.16
2017-03-27T09:07:34.692Z,24.2
2017-03-27T09:08:46.196Z,24.13
2017-03-27T09:09:56.421Z,24.45
2017-03-27T09:11:07.407Z,24.65
2017-03-27T09:12:18.598Z,24.82
2017-03-27T09:13:28.504Z,25.06
2017-03-27T09:14:38.761Z,25.27
2017-03-27T09:15:49.011Z,25.5
2017-03-27T09:16:59.843Z,25.76
2017-03-27T09:18:10.434Z,26.11
2017-03-27T09:19:20.670Z,26.3
2017-03-27T09:20:30.969Z,26.46
2017-03-27T09:21:41.554Z,26.85
2017-03-27T09:22:52.425Z,27.04
2017-03-27T09:24:02.629Z,27.01
2017-03-27T09:25:13.164Z,26.9
2017-03-27T09:26:23.748Z,27.03
2017-03-27T09:27:34.296Z,26.98
2017-03-27T09:28:45.588Z,27.12
2017-03-27T09:29:55.392Z,27.04
2017-03-27T09:31:05.976Z,26.85
2017-03-27T09:32:16.815Z,26.86
2017-03-27T09:33:27.508Z,26.75
2017-03-27T09:34:38.342Z,26.59
2017-03-27T09:35:48.673Z,26.74
2017-03-27T09:36:59.333Z,26.95
2017-03-27T09:38:09.855Z,27.15
2017-03-27T09:39:20.092Z,27.28
2017-03-27T09:40:30.903Z,27.39
2017-03-27T09:41:41.528Z,27.28
2017-03-27T09:42:52.054Z,27.26
2017-03-27T09:44:02.603Z,27.37
2017-03-27T09:45:13.164Z,27.26
2017-03-27T09:46:24.056Z,27.49
2017-03-27T09:47:34.634Z,27.23
2017-03-27T09:48:44.960Z,27.07
2017-03-27T09:49:55.475Z,26.98
2017-03-27T09:51:06.036Z,26.95
2017-03-27T09:52:16.864Z,26.77
2017-03-27T09:53:27.425Z,26.78
2017-03-27T09:54:37.669Z,26.68
2017-03-27T09:55:48.357Z,26.67
2017-03-27T09:56:58.909Z,26.86
2017-03-27T09:58:09.028Z,27.08
2017-03-27T09:59:19.286Z,27.26
2017-03-27T10:00:30.132Z,27.41
2017-03-27T10:01:40.698Z,27.52
2017-03-27T10:02:51.211Z,27.34
2017-03-27T10:04:02.079Z,26.95
2017-03-27T10:05:12.625Z,26.95
2017-03-27T10:06:24.120Z,26.7
2017-03-27T10:07:34.370Z,26.43
2017-03-27T10:08:44.994Z,26.33
2017-03-27T10:09:55.963Z,26.36
2017-03-27T10:11:06.294Z,26.33
2017-03-27T10:12:16.506Z,26.03
2017-03-27T10:13:26.425Z,25.96
2017-03-27T10:14:37.941Z,25.96
2017-03-27T10:15:49.724Z,25.94
2017-03-27T10:17:00.339Z,25.94
2017-03-27T10:18:10.977Z,25.87
2017-03-27T10:19:21.254Z,25.68
2017-03-27T10:20:31.841Z,25.5
2017-03-27T10:21:42.264Z,25.49
2017-03-27T10:22:52.943Z,25.46
2017-03-27T10:24:03.278Z,25.36
2017-03-27T10:25:13.940Z,25.09
2017-03-27T10:26:24.092Z,25.17
2017-03-27T10:27:34.584Z,25.17
2017-03-27T10:28:44.865Z,25.22
2017-03-27T10:29:55.182Z,24.99
2017-03-27T10:31:05.416Z,24.97
2017-03-27T10:32:15.980Z,25.07
2017-03-27T10:33:26.427Z,25.19
2017-03-27T10:34:36.726Z,25.19
2017-03-27T10:35:47.348Z,25.17
2017-03-27T10:36:57.867Z,25.19
2017-03-27T10:38:08.416Z,25.07
2017-03-27T10:39:19.504Z,25.15
2017-03-27T10:40:29.460Z,25.09
2017-03-27T10:41:40.091Z,25.15
2017-03-27T10:42:50.024Z,25.17
2017-03-27T10:44:00.538Z,25.05
2017-03-27T10:45:11.334Z,25.1
2017-03-27T10:46:21.222Z,25.27
2017-03-27T10:47:31.884Z,25.28
2017-03-27T10:48:42.181Z,25.18
2017-03-27T10:49:52.805Z,25.03
2017-03-27T10:51:03.284Z,24.88
2017-03-27T10:52:13.990Z,24.6
2017-03-27T10:53:24.537Z,24.4
2017-03-27T10:54:35.077Z,24.4
2017-03-27T10:55:45.308Z,24.31
2017-03-27T10:56:55.862Z,24.24
2017-03-27T10:58:07.365Z,24.38
2017-03-27T10:59:17.581Z,24.65
2017-03-27T11:00:27.185Z,24.67
2017-03-27T11:01:37.711Z,24.76
2017-03-27T11:02:48.571Z,24.63
2017-03-27T11:03:59.100Z,24.54
2017-03-27T11:05:09.340Z,24.38
2017-03-27T11:06:19.995Z,24.35
2017-03-27T11:07:30.733Z,24.17
2017-03-27T11:08:41.325Z,23.95
2017-03-27T11:09:51.890Z,24
2017-03-27T11:11:02.133Z,24.01
2017-03-27T11:12:12.458Z,24.01
2017-03-27T11:13:22.767Z,23.8
2017-03-27T11:15:05.521Z,23.72
2017-03-27T11:16:16.073Z,23.9
2017-03-27T11:17:26.275Z,24
2017-03-27T11:18:36.583Z,23.91
2017-03-27T11:19:47.028Z,23.92
2017-03-27T11:20:56.902Z,23.6
2017-03-27T11:22:07.124Z,23.6
2017-03-27T11:23:17.707Z,23.48
2017-03-27T11:24:28.263Z,23.45
2017-03-27T11:25:39.102Z,23.53
2017-03-27T11:26:48.981Z,23.64
2017-03-27T11:27:59.569Z,23.65
2017-03-27T11:29:10.204Z,23.68
2017-03-27T11:30:20.471Z,23.7
2017-03-27T11:31:30.921Z,23.75
2017-03-27T11:32:41.172Z,23.82
2017-03-27T11:33:51.707Z,23.72
2017-03-27T11:35:01.659Z,23.69
2017-03-27T11:36:11.935Z,23.9
2017-03-27T11:37:22.718Z,24.17
2017-03-27T11:38:33.381Z,24.27
2017-03-27T11:39:42.944Z,24.47
2017-03-27T11:40:52.930Z,24.29
2017-03-27T11:42:03.496Z,24.09
2017-03-27T11:43:14.915Z,23.95
2017-03-27T11:44:25.496Z,23.91
2017-03-27T11:45:36.079Z,24.06
2017-03-27T11:46:46.643Z,23.77
2017-03-27T11:47:57.247Z,23.64
2017-03-27T11:49:08.033Z,23.57
2017-03-27T11:50:18.617Z,23.53
2017-03-27T11:51:29.314Z,23.38
2017-03-27T11:52:39.970Z,23.46
2017-03-27T11:53:50.613Z,23.72
2017-03-27T11:55:01.417Z,23.7
2017-03-27T11:56:11.943Z,23.65
2017-03-27T11:57:22.495Z,23.57
2017-03-27T11:58:33.166Z,23.4
2017-03-27T11:59:43.433Z,23.2
2017-03-27T12:00:54.279Z,22.71
2017-03-27T12:02:04.974Z,22.61
2017-03-27T12:03:15.226Z,22.6
2017-03-27T12:04:25.853Z,22.65
2017-03-27T12:05:36.142Z,22.79
2017-03-27T12:06:46.370Z,22.9
2017-03-27T12:07:56.957Z,23.05
2017-03-27T12:09:06.847Z,23.55
2017-03-27T12:10:17.387Z,23.91
2017-03-27T12:11:27.976Z,24.2
2017-03-27T12:12:38.524Z,24.35
2017-03-27T12:13:49.047Z,24.32
2017-03-27T12:14:59.618Z,24.32
2017-03-27T12:16:10.415Z,23.9
2017-03-27T12:17:21.120Z,23.63
2017-03-27T12:18:31.973Z,23.18
2017-03-27T12:19:42.522Z,23.14
2017-03-27T12:20:52.878Z,23.21
2017-03-27T12:22:03.152Z,23.11
2017-03-27T12:23:13.734Z,23.02
2017-03-27T12:24:23.806Z,23.03
2017-03-27T12:25:34.434Z,23.06
2017-03-27T12:26:44.956Z,23.16
2017-03-27T12:27:55.571Z,23.28
2017-03-27T12:29:06.164Z,23.46
2017-03-27T12:30:18.269Z,23.39
2017-03-27T12:31:28.236Z,23.43
2017-03-27T12:32:38.160Z,23.33
2017-03-27T12:33:48.800Z,23.32
2017-03-27T12:34:59.427Z,23.31
2017-03-27T12:36:09.884Z,23.21
2017-03-27T12:37:20.161Z,22.98
2017-03-27T12:38:30.355Z,22.78
2017-03-27T12:39:40.588Z,22.43
2017-03-27T12:40:50.582Z,22.35
2017-03-27T12:42:01.151Z,22.34
2017-03-27T12:43:11.399Z,22.43
2017-03-27T12:44:22.049Z,22.42
2017-03-27T12:45:32.721Z,22.43
2017-03-27T12:46:43.391Z,22.49
2017-03-27T12:47:54.254Z,22.39
2017-03-27T12:49:04.989Z,22.33
2017-03-27T12:50:15.230Z,22.31
2017-03-27T12:51:25.836Z,22.24
2017-03-27T12:52:37.382Z,22.24
2017-03-27T12:53:48.229Z,22.09
2017-03-27T12:54:58.852Z,21.97
2017-03-27T12:56:09.055Z,22.05
2017-03-27T12:57:19.661Z,22.15
2017-03-27T12:58:30.212Z,22.02
2017-03-27T12:59:40.358Z,22.13
2017-03-27T13:00:50.933Z,22.15
2017-03-27T13:02:01.527Z,22.09
2017-03-27T13:03:43.928Z,21.91
2017-03-27T13:04:54.797Z,21.91
2017-03-27T13:06:05.068Z,21.84
2017-03-27T13:07:15.626Z,21.86
2017-03-27T13:08:26.246Z,21.83
2017-03-27T13:09:36.508Z,21.73
2017-03-27T13:10:47.016Z,21.73
2017-03-27T13:11:57.860Z,21.84
2017-03-27T13:13:08.423Z,21.72
2017-03-27T13:14:18.733Z,21.71
2017-03-27T13:15:29.306Z,21.65
2017-03-27T13:16:40.102Z,21.57
2017-03-27T13:17:50.381Z,21.46
2017-03-27T13:19:00.984Z,21.34
2017-03-27T13:20:10.905Z,21.19
2017-03-27T13:21:22.398Z,21.16
2017-03-27T13:22:33.233Z,20.97
2017-03-27T13:23:43.801Z,20.98
2017-03-27T13:24:54.982Z,20.67
2017-03-27T13:26:05.562Z,20.38
2017-03-27T13:27:16.187Z,20.11
2017-03-27T13:28:26.731Z,19.92
2017-03-27T13:29:38.268Z,19.7
2017-03-27T13:30:49.079Z,19.61
2017-03-27T13:31:59.724Z,19.48
2017-03-27T13:33:10.256Z,19.56
2017-03-27T13:34:20.813Z,19.48
2017-03-27T13:35:31.387Z,19.46
2017-03-27T13:36:41.925Z,19.35
2017-03-27T13:37:53.433Z,19.39
2017-03-27T13:39:04.077Z,19.3
2017-03-27T13:40:14.873Z,19.33
2017-03-27T13:41:26.430Z,19.23
2017-03-27T13:42:37.009Z,19.16
2017-03-27T13:43:47.566Z,19.09
2017-03-27T13:44:57.439Z,19
2017-03-27T13:46:09.182Z,18.97
2017-03-27T13:47:19.732Z,18.94
2017-03-27T13:48:29.981Z,18.91
2017-03-27T13:49:40.509Z,18.87
2017-03-27T13:50:50.698Z,18.82
2017-03-27T13:52:01.196Z,18.8
2017-03-27T13:53:11.535Z,18.84
2017-03-27T13:54:22.115Z,18.8
2017-03-27T13:55:32.706Z,18.72
2017-03-27T13:56:42.903Z,18.62
2017-03-27T13:57:53.755Z,18.56
2017-03-27T13:59:04.259Z,18.4
2017-03-27T14:00:14.836Z,18.41
2017-03-27T14:01:25.172Z,18.31
2017-03-27T14:02:35.730Z,18.3
2017-03-27T14:03:46.122Z,18.16
2017-03-27T14:04:56.657Z,18.13
2017-03-27T14:06:06.575Z,18.09
2017-03-27T14:07:17.130Z,18.07
2017-03-27T14:08:27.676Z,18.04
2017-03-27T14:09:38.058Z,18
2017-03-27T14:10:48.609Z,18.13
2017-03-27T14:11:59.459Z,18.07
2017-03-27T14:13:09.975Z,18.17
2017-03-27T14:14:20.599Z,18.28
2017-03-27T14:15:32.103Z,18.13
2017-03-27T14:16:42.637Z,17.95
2017-03-27T14:17:52.846Z,17.89
2017-03-27T14:19:03.433Z,17.89
2017-03-27T14:20:14.033Z,17.91
2017-03-27T14:21:24.295Z,18
2017-03-27T14:22:34.335Z,17.94
2017-03-27T14:23:43.996Z,18
2017-03-27T14:24:53.982Z,17.86
2017-03-27T14:26:03.951Z,17.8
2017-03-27T14:27:14.295Z,17.68
2017-03-27T14:28:24.262Z,17.72
2017-03-27T14:29:34.288Z,17.76
2017-03-27T14:30:44.231Z,17.67
2017-03-27T14:31:53.610Z,17.62
2017-03-27T14:33:03.606Z,17.68
2017-03-27T14:34:13.554Z,17.75
2017-03-27T14:35:24.129Z,17.73
2017-03-27T14:36:34.719Z,17.72
2017-03-27T14:37:45.368Z,17.73
2017-03-27T14:38:56.194Z,17.75
2017-03-27T14:40:07.719Z,17.61
2017-03-27T14:41:17.696Z,17.62
2017-03-27T14:42:27.898Z,17.64
2017-03-27T14:43:38.459Z,17.64
2017-03-27T14:44:49.022Z,17.46
2017-03-27T14:45:59.340Z,17.43
2017-03-27T14:47:09.859Z,17.45
2017-03-27T14:48:21.066Z,17.5
2017-03-27T14:49:31.717Z,17.54
2017-03-27T14:50:42.261Z,17.61
2017-03-27T14:51:52.183Z,17.55
2017-03-27T14:53:02.135Z,17.64
2017-03-27T14:54:11.791Z,17.57
2017-03-27T14:55:21.512Z,17.62
2017-03-27T14:56:31.718Z,17.67
2017-03-27T14:57:41.688Z,17.61
2017-03-27T14:58:51.917Z,17.62
2017-03-27T15:00:01.621Z,17.58
2017-03-27T15:01:11.325Z,17.62
2017-03-27T15:02:21.493Z,17.54
2017-03-27T15:03:31.437Z,17.43
2017-03-27T15:04:41.461Z,17.36
2017-03-27T15:05:51.085Z,17.27
2017-03-27T15:07:01.063Z,17.35
2017-03-27T15:08:11.414Z,17.24
2017-03-27T15:09:21.359Z,17.38
2017-03-27T15:10:31.375Z,17.35
2017-03-27T15:11:41.364Z,17.27
2017-03-27T15:12:51.326Z,17.16
2017-03-27T15:14:01.530Z,17.09
2017-03-27T15:15:11.467Z,17.06
2017-03-27T15:16:21.119Z,17.04
2017-03-27T15:17:31.072Z,16.87
2017-03-27T15:18:40.688Z,16.69
2017-03-27T15:19:50.886Z,16.65
2017-03-27T15:21:00.562Z,16.66
2017-03-27T15:22:10.767Z,16.69
2017-03-27T15:23:20.419Z,16.75
2017-03-27T15:24:30.046Z,16.71